Time;durP1;ratioP1;P1;durP2;ratioP2;P2;SDS_P1;SDS_P2;PMS_P1;PMS_P2;Temp;Humidity;BMP_temperature;BMP_pressure;BME280_temperature;BME280_humidity;BME280_pressure;Samples;Min_cycle;Max_cycle;Signal;HPM_P1;HPM_P2
2021/07/19 00:01:59;;;;;;;1.70;1.60;;;;;;;18.23;67.22;101350.31;5979043;29;20499;-76
2021/07/19 00:05:06;;;;;;;1.70;1.70;;;;;;;18.16;67.65;101346.84;5979267;29;20200;-76
2021/07/19 00:08:16;;;;;;;1.30;1.30;;;;;;;18.07;68.33;101356.69;5980345;29;20216;-76
2021/07/19 00:11:21;;;;;;;1.73;1.65;;;;;;;18.07;68.25;101353.94;5980023;29;20192;-76
2021/07/19 00:14:26;;;;;;;1.70;1.60;;;;;;;18.15;68.44;101359.00;5979047;29;20357;-76
2021/07/19 00:17:31;;;;;;;1.63;1.63;;;;;;;18.25;68.02;101367.44;5980239;29;20298;-76
2021/07/19 00:20:36;;;;;;;1.30;1.30;;;;;;;18.12;68.42;101354.00;5978902;29;20193;-76
2021/07/19 00:23:40;;;;;;;1.95;1.60;;;;;;;18.14;68.50;101362.84;5979133;29;20438;-76
2021/07/19 00:26:44;;;;;;;1.88;1.65;;;;;;;18.14;68.70;101368.38;5978904;29;20553;-76
2021/07/19 00:29:50;;;;;;;1.67;1.50;;;;;;;18.16;68.92;101360.66;5979568;29;20292;-76
2021/07/19 00:32:55;;;;;;;1.88;1.58;;;;;;;18.18;68.59;101364.00;5979315;29;20193;-76
2021/07/19 00:36:00;;;;;;;1.52;1.52;;;;;;;18.15;69.30;101378.34;5980173;29;20229;-76
2021/07/19 00:39:08;;;;;;;2.75;1.30;;;;;;;18.11;69.33;101374.41;5980045;29;20204;-76
2021/07/19 00:42:12;;;;;;;1.55;1.45;;;;;;;18.19;68.13;101376.75;5980025;29;20285;-76
2021/07/19 00:45:19;;;;;;;1.63;1.63;;;;;;;18.04;67.95;101384.78;5979902;29;20197;-76
2021/07/19 00:48:23;;;;;;;1.30;1.30;;;;;;;18.06;67.41;101388.13;5997145;29;20457;-76
2021/07/19 00:51:29;;;;;;;1.35;1.35;;;;;;;17.89;66.75;101392.84;5984120;29;20197;-76
2021/07/19 00:54:40;;;;;;;1.23;1.23;;;;;;;17.90;65.40;101409.16;5984299;29;20220;-76
2021/07/19 00:57:48;;;;;;;1.15;1.15;;;;;;;17.83;65.06;101404.88;5983033;29;20287;-75
2021/07/19 01:00:54;;;;;;;1.15;1.10;;;;;;;17.89;65.02;101410.25;5983277;29;20387;-76
2021/07/19 01:04:02;;;;;;;1.30;1.30;;;;;;;17.87;64.31;101411.59;5995203;24;20242;-76
2021/07/19 01:07:10;;;;;;;1.20;1.20;;;;;;;17.70;63.44;101416.25;5982079;29;20209;-76
2021/07/19 01:10:18;;;;;;;1.30;1.30;;;;;;;17.69;62.93;101420.13;5981915;29;20232;-76
2021/07/19 01:13:26;;;;;;;1.35;1.13;;;;;;;17.55;62.48;101430.63;5983997;29;20230;-76
2021/07/19 01:16:31;;;;;;;1.55;1.20;;;;;;;17.54;62.12;101433.66;5982875;29;20247;-76
2021/07/19 01:19:37;;;;;;;0.90;0.90;;;;;;;17.67;62.13;101438.84;5983888;29;20222;-76
2021/07/19 01:23:14;;;;;;;1.20;1.10;;;;;;;17.59;61.30;101447.53;5981806;29;20285;-76
2021/07/19 01:26:47;;;;;;;1.08;1.08;;;;;;;17.44;61.01;101443.34;5983694;29;20299;-76
2021/07/19 01:29:57;;;;;;;1.88;1.48;;;;;;;17.30;60.95;101455.78;5983612;29;20223;-76
2021/07/19 01:33:04;;;;;;;1.05;1.05;;;;;;;17.34;60.63;101456.13;5982497;29;20268;-76
2021/07/19 01:36:12;;;;;;;1.20;1.10;;;;;;;17.41;60.23;101459.59;5983206;29;20193;-76
2021/07/19 01:39:38;;;;;;;1.00;1.00;;;;;;;17.31;60.54;101451.94;5982099;29;20267;-76
2021/07/19 01:42:47;;;;;;;1.00;1.00;;;;;;;17.29;59.70;101465.13;5982113;29;20194;-76
2021/07/19 01:45:53;;;;;;;0.95;0.95;;;;;;;17.36;59.63;101465.81;5982251;29;20209;-76
2021/07/19 01:49:06;;;;;;;1.10;1.10;;;;;;;17.30;57.63;101461.31;5981885;29;20528;-76
2021/07/19 01:52:15;;;;;;;2.60;1.08;;;;;;;17.16;58.25;101465.44;5981884;29;20224;-76
2021/07/19 01:55:20;;;;;;;1.55;1.10;;;;;;;17.10;57.67;101476.63;5981776;29;20275;-76
2021/07/19 01:58:27;;;;;;;0.85;0.85;;;;;;;17.11;57.92;101481.88;5980143;29;20348;-76
2021/07/19 02:01:49;;;;;;;1.10;0.82;;;;;;;17.05;57.36;101485.59;5980905;29;20289;-76
2021/07/19 02:04:56;;;;;;;1.10;1.10;;;;;;;17.08;57.37;101484.25;5981133;29;20432;-76
2021/07/19 02:08:02;;;;;;;0.98;0.98;;;;;;;16.82;56.72;101486.50;5981741;29;20276;-77
2021/07/19 02:11:15;;;;;;;0.93;0.93;;;;;;;16.84;57.18;101491.78;5981363;29;20276;-76
2021/07/19 02:14:20;;;;;;;4.07;1.00;;;;;;;16.80;57.33;101496.06;5980665;29;20219;-76
2021/07/19 02:17:37;;;;;;;0.90;0.90;;;;;;;16.83;56.84;101498.34;5981269;29;20283;-76
2021/07/19 02:20:44;;;;;;;1.00;1.00;;;;;;;16.81;57.14;101500.53;5982386;29;20197;-76
2021/07/19 02:23:54;;;;;;;1.00;1.00;;;;;;;16.79;57.06;101510.97;5995308;29;20398;-76
2021/07/19 02:27:29;;;;;;;0.98;0.98;;;;;;;16.68;57.23;101518.16;5970465;29;20231;-76
2021/07/19 02:30:34;;;;;;;0.90;0.90;;;;;;;16.65;57.05;101512.28;5981228;29;20239;-76
2021/07/19 02:33:42;;;;;;;0.80;0.80;;;;;;;16.59;57.46;101524.28;5981211;29;20208;-76
2021/07/19 02:36:52;;;;;;;1.20;1.20;;;;;;;16.48;57.88;101516.81;5980933;29;20240;-76
2021/07/19 02:39:56;;;;;;;0.90;0.90;;;;;;;16.66;57.81;101514.81;5982245;29;20204;-76
2021/07/19 02:43:05;;;;;;;1.30;0.90;;;;;;;16.69;57.77;101530.03;5981027;29;20208;-76
2021/07/19 02:46:12;;;;;;;1.05;1.05;;;;;;;16.63;57.60;101525.47;5981041;29;20241;-76
2021/07/19 02:49:28;;;;;;;0.70;0.70;;;;;;;16.66;57.38;101533.25;5980865;29;20392;-76
2021/07/19 02:52:36;;;;;;;0.93;0.93;;;;;;;16.54;57.56;101532.38;5982175;29;20192;-77
2021/07/19 02:55:42;;;;;;;0.70;0.70;;;;;;;16.53;57.89;101536.25;5982061;29;20193;-76
2021/07/19 02:58:47;;;;;;;0.90;0.90;;;;;;;16.40;57.61;101541.94;5980846;29;20197;-76
2021/07/19 03:01:54;;;;;;;0.73;0.73;;;;;;;16.42;57.51;101553.56;5981252;29;20273;-76
2021/07/19 03:05:02;;;;;;;0.80;0.80;;;;;;;16.42;57.42;101548.06;5981483;29;20192;-76
2021/07/19 03:08:07;;;;;;;0.90;0.90;;;;;;;16.43;57.52;101552.50;5979998;29;20324;-76
2021/07/19 03:11:39;;;;;;;0.70;0.70;;;;;;;16.35;57.40;101555.59;5980046;29;20239;-76
2021/07/19 03:14:44;;;;;;;1.45;0.80;;;;;;;16.37;57.32;101562.53;5980339;29;20209;-76
2021/07/19 03:17:51;;;;;;;0.77;0.75;;;;;;;16.42;56.94;101556.31;5980207;29;20590;-76
2021/07/19 03:21:00;;;;;;;0.70;0.70;;;;;;;16.41;56.99;101560.16;5979292;29;20313;-76
2021/07/19 03:24:07;;;;;;;0.70;0.70;;;;;;;16.41;57.26;101574.75;5981235;29;20312;-76
2021/07/19 03:27:12;;;;;;;0.70;0.70;;;;;;;16.27;56.65;101576.91;5981271;29;20229;-76
2021/07/19 03:30:18;;;;;;;0.80;0.80;;;;;;;16.36;56.84;101571.06;5979964;29;20232;-76
2021/07/19 03:33:23;;;;;;;0.80;0.80;;;;;;;16.49;56.87;101568.03;5995010;29;20213;-76
2021/07/19 03:36:31;;;;;;;0.80;0.80;;;;;;;16.54;57.03;101576.47;5980911;29;20193;-75
2021/07/19 03:39:38;;;;;;;2.90;0.80;;;;;;;16.57;56.67;101570.47;5980251;29;20378;-76
2021/07/19 03:42:46;;;;;;;0.70;0.70;;;;;;;16.57;56.65;101576.00;5979043;29;20221;-76
2021/07/19 03:45:53;;;;;;;0.70;0.70;;;;;;;16.60;56.46;101575.53;5980076;29;20193;-76
2021/07/19 03:48:59;;;;;;;0.75;0.75;;;;;;;16.60;56.10;101584.63;5980377;29;20209;-76
2021/07/19 03:52:05;;;;;;;0.98;0.98;;;;;;;16.51;55.76;101587.94;5979656;29;20553;-76
2021/07/19 03:55:14;;;;;;;0.73;0.73;;;;;;;16.61;55.37;101586.31;5979259;29;20441;-76
2021/07/19 03:58:23;;;;;;;0.90;0.90;;;;;;;16.60;55.53;101598.41;5981020;29;20193;-76
2021/07/19 04:01:34;;;;;;;0.90;0.90;;;;;;;16.46;55.84;101582.31;5994501;29;20220;-76
2021/07/19 04:04:45;;;;;;;1.10;0.68;;;;;;;16.67;55.45;101590.00;5936356;30;20204;-75
2021/07/19 04:07:54;;;;;;;0.90;0.90;;;;;;;16.69;55.11;101585.94;5948625;30;20263;-76
2021/07/19 04:11:00;;;;;;;0.80;0.80;;;;;;;16.58;55.36;101594.22;5949121;30;20273;-76
2021/07/19 04:14:09;;;;;;;0.70;0.70;;;;;;;16.42;55.40;101589.38;5934229;30;20339;-76
2021/07/19 04:17:16;;;;;;;0.60;0.60;;;;;;;16.48;55.51;101588.41;5949592;30;20214;-76
2021/07/19 04:20:23;;;;;;;0.90;0.90;;;;;;;16.56;55.87;101585.34;5936118;30;20202;-76
2021/07/19 04:23:31;;;;;;;0.70;0.70;;;;;;;16.49;56.06;101595.59;5953442;30;20214;-76
2021/07/19 04:26:49;;;;;;;0.70;0.70;;;;;;;16.59;56.00;101595.91;5954368;30;20248;-76
2021/07/19 04:29:58;;;;;;;0.70;0.70;;;;;;;16.49;55.99;101595.59;5954044;30;20230;-75
2021/07/19 04:33:02;;;;;;;0.85;0.70;;;;;;;16.65;55.33;101592.19;5953753;30;20209;-76
2021/07/19 04:36:07;;;;;;;1.00;1.00;;;;;;;16.71;55.29;101593.97;5939089;30;20385;-76
2021/07/19 04:39:14;;;;;;;0.85;0.85;;;;;;;16.65;55.58;101600.44;5939085;30;20481;-76
2021/07/19 04:42:19;;;;;;;0.88;0.88;;;;;;;16.77;55.19;101598.53;5938915;30;20202;-76
2021/07/19 04:45:23;;;;;;;1.95;0.80;;;;;;;16.50;54.74;101602.78;5939923;30;20270;-76
2021/07/19 04:48:28;;;;;;;0.80;0.80;;;;;;;16.58;54.82;101610.75;5940063;30;20275;-76
2021/07/19 04:51:32;;;;;;;0.98;0.98;;;;;;;16.65;54.70;101605.94;5938514;30;20608;-76
2021/07/19 04:54:39;;;;;;;0.90;0.90;;;;;;;16.78;54.61;101594.69;5939833;30;20236;-76
2021/07/19 04:57:46;;;;;;;0.90;0.90;;;;;;;16.79;54.52;101618.44;5939951;30;20341;-76
2021/07/19 05:00:55;;;;;;;1.75;1.00;;;;;;;16.87;54.24;101616.13;5938485;30;20270;-76
2021/07/19 05:04:01;;;;;;;0.68;0.68;;;;;;;16.91;53.96;101627.53;5973640;29;20599;-76
2021/07/19 05:07:07;;;;;;;0.90;0.90;;;;;;;16.83;54.28;101619.63;5983082;29;20481;-76
2021/07/19 05:10:16;;;;;;;0.80;0.80;;;;;;;16.82;54.19;101617.94;5984237;29;20292;-76
2021/07/19 05:13:21;;;;;;;0.80;0.80;;;;;;;17.07;54.19;101625.97;5983996;29;20199;-75
2021/07/19 05:16:28;;;;;;;1.00;1.00;;;;;;;17.09;53.95;101629.31;5983799;29;20193;-75
2021/07/19 05:19:36;;;;;;;0.80;0.80;;;;;;;17.21;54.12;101625.47;5982879;29;20444;-76
2021/07/19 05:22:45;;;;;;;0.98;0.90;;;;;;;17.15;53.55;101623.69;5982113;29;20267;-76
2021/07/19 05:25:56;;;;;;;0.80;0.80;;;;;;;17.17;53.83;101640.84;5982786;29;20244;-76
2021/07/19 05:29:00;;;;;;;0.90;0.90;;;;;;;17.11;53.53;101633.53;5984098;29;20200;-76
2021/07/19 05:32:08;;;;;;;0.80;0.80;;;;;;;17.13;53.13;101636.88;5983402;29;20217;-76
2021/07/19 05:35:13;;;;;;;0.80;0.80;;;;;;;17.13;53.22;101636.88;5983630;29;20225;-76
2021/07/19 05:38:17;;;;;;;0.80;0.80;;;;;;;17.17;53.19;101638.06;5983925;29;20193;-76
2021/07/19 05:41:23;;;;;;;0.90;0.90;;;;;;;17.38;53.65;101640.19;5983989;29;20260;-76
2021/07/19 05:44:27;;;;;;;0.90;0.90;;;;;;;17.50;52.71;101642.94;5982387;29;20193;-76
2021/07/19 05:47:32;;;;;;;0.80;0.80;;;;;;;17.68;52.60;101650.25;5983239;29;20193;-76
2021/07/19 05:50:38;;;;;;;1.55;0.90;;;;;;;17.73;52.51;101651.19;5982101;29;20281;-76
2021/07/19 05:53:43;;;;;;;1.23;0.80;;;;;;;17.85;51.14;101662.19;5983191;29;20225;-76
2021/07/19 05:56:48;;;;;;;1.30;0.93;;;;;;;18.06;52.16;101642.19;5983240;29;20199;-76
2021/07/19 05:59:55;;;;;;;1.00;1.00;;;;;;;18.08;51.36;101662.09;5983495;29;20193;-76
2021/07/19 06:02:59;;;;;;;0.98;0.98;;;;;;;18.07;50.50;101660.44;5984115;29;20241;-76
2021/07/19 06:06:06;;;;;;;0.85;0.85;;;;;;;18.03;50.46;101653.72;5983416;29;20200;-76
2021/07/19 06:09:10;;;;;;;0.85;0.82;;;;;;;18.22;51.39;101657.97;5983433;29;20235;-76
2021/07/19 06:12:15;;;;;;;0.80;0.80;;;;;;;18.40;50.75;101654.97;5981551;29;20548;-76
2021/07/19 06:15:20;;;;;;;1.75;1.23;;;;;;;18.48;51.00;101657.38;5982096;29;20531;-76
2021/07/19 06:18:24;;;;;;;0.90;0.90;;;;;;;18.53;50.43;101659.38;5982684;29;20193;-75
2021/07/19 06:21:30;;;;;;;0.80;0.80;;;;;;;18.54;50.09;101659.13;5982795;29;20203;-75
2021/07/19 06:24:34;;;;;;;0.90;0.90;;;;;;;18.73;50.55;101655.03;5982239;29;20225;-75
2021/07/19 06:27:41;;;;;;;1.00;1.00;;;;;;;18.74;49.74;101656.72;5981877;29;20224;-75
2021/07/19 06:30:45;;;;;;;0.70;0.70;;;;;;;18.86;49.79;101664.91;5982636;29;20200;-76
2021/07/19 06:33:49;;;;;;;0.80;0.80;;;;;;;18.85;49.23;101667.94;5982340;29;20224;-75
2021/07/19 06:36:53;;;;;;;0.85;0.85;;;;;;;18.93;48.79;101675.78;5982339;29;20199;-75
2021/07/19 06:39:57;;;;;;;0.82;0.82;;;;;;;18.89;49.51;101669.09;5982159;29;20193;-76
2021/07/19 06:43:03;;;;;;;1.00;1.00;;;;;;;19.03;49.41;101664.94;5981797;29;20197;-75
2021/07/19 06:46:09;;;;;;;0.70;0.70;;;;;;;19.21;48.93;101661.84;5981670;29;20218;-76
2021/07/19 06:49:13;;;;;;;0.88;0.88;;;;;;;19.20;48.89;101665.72;5980539;29;20194;-75
2021/07/19 06:52:17;;;;;;;1.27;0.80;;;;;;;19.13;48.01;101670.59;5980344;29;20295;-75
2021/07/19 06:55:22;;;;;;;0.80;0.80;;;;;;;19.06;48.30;101675.47;5981716;29;20275;-76
2021/07/19 06:58:27;;;;;;;0.90;0.90;;;;;;;19.19;47.82;101658.50;5981677;29;20249;-76
2021/07/19 07:01:33;;;;;;;0.80;0.80;;;;;;;19.25;47.54;101657.50;5981191;29;20220;-76
2021/07/19 07:04:38;;;;;;;0.75;0.70;;;;;;;19.20;47.48;101654.66;5980388;29;20383;-76
2021/07/19 07:07:43;;;;;;;0.80;0.80;;;;;;;18.83;47.02;101664.56;5981229;29;20199;-76
2021/07/19 07:10:48;;;;;;;0.88;0.88;;;;;;;19.22;47.14;101664.38;5981381;29;20192;-76
2021/07/19 07:13:54;;;;;;;1.00;1.00;;;;;;;19.00;46.10;101669.00;5980127;29;20217;-76
2021/07/19 07:16:58;;;;;;;1.40;0.90;;;;;;;19.04;47.18;101666.56;5981577;29;20193;-75
2021/07/19 07:20:03;;;;;;;0.95;0.90;;;;;;;19.02;47.00;101674.31;5981161;29;20235;-76
2021/07/19 07:23:07;;;;;;;1.00;1.00;;;;;;;19.05;46.79;101668.28;5980976;29;20198;-76
2021/07/19 07:26:12;;;;;;;0.93;0.93;;;;;;;19.33;46.40;101679.22;5978891;29;20527;-75
2021/07/19 07:29:17;;;;;;;0.85;0.85;;;;;;;19.25;45.59;101668.56;5980342;29;20193;-76
2021/07/19 07:32:24;;;;;;;0.80;0.80;;;;;;;19.37;45.75;101669.31;5980561;29;20284;-76
2021/07/19 07:35:29;;;;;;;1.10;1.10;;;;;;;19.44;46.15;101667.19;5980753;29;20308;-75
2021/07/19 07:38:34;;;;;;;0.82;0.80;;;;;;;19.55;46.42;101669.03;5979484;29;20421;-76
2021/07/19 07:41:41;;;;;;;1.27;1.00;;;;;;;19.86;46.38;101670.25;5980416;29;20193;-75
2021/07/19 07:44:46;;;;;;;0.90;0.90;;;;;;;19.73;45.18;101671.47;5980635;29;20200;-76
2021/07/19 07:47:50;;;;;;;0.95;0.95;;;;;;;19.41;44.60;101648.38;5979444;29;20312;-76
2021/07/19 07:50:54;;;;;;;0.90;0.90;;;;;;;19.45;45.53;101646.75;5979645;29;20193;-76
2021/07/19 07:53:59;;;;;;;1.48;0.90;;;;;;;19.48;44.55;101645.41;5979466;29;20220;-75
2021/07/19 07:57:05;;;;;;;1.20;1.10;;;;;;;19.76;45.25;101637.75;5980150;29;20220;-75
2021/07/19 08:00:16;;;;;;;2.00;1.05;;;;;;;19.85;44.99;101652.78;5980178;29;20193;-75
2021/07/19 08:03:21;;;;;;;0.98;0.98;;;;;;;19.82;45.17;101656.06;5980190;29;20244;-75
2021/07/19 08:06:25;;;;;;;1.00;1.00;;;;;;;19.86;45.82;101648.94;5980271;29;20272;-75
2021/07/19 08:09:30;;;;;;;1.20;1.20;;;;;;;19.90;45.26;101650.09;5980611;29;20234;-76
2021/07/19 08:12:35;;;;;;;1.00;1.00;;;;;;;19.62;44.82;101650.28;5994065;29;20595;-76
2021/07/19 08:15:41;;;;;;;1.02;1.02;;;;;;;19.78;44.63;101652.16;5979026;29;20201;-76
2021/07/19 08:18:45;;;;;;;1.05;1.05;;;;;;;19.97;45.88;101649.91;5980262;29;20224;-76
2021/07/19 08:21:52;;;;;;;0.93;0.93;;;;;;;20.10;44.72;101643.94;5979858;29;20265;-76
2021/07/19 08:24:56;;;;;;;1.00;1.00;;;;;;;20.05;45.15;101640.28;5980784;29;20193;-77
2021/07/19 08:28:01;;;;;;;1.00;1.00;;;;;;;19.91;44.53;101635.16;5979836;29;20273;-76
2021/07/19 08:31:06;;;;;;;1.40;1.30;;;;;;;19.95;44.39;101636.28;5978963;29;20215;-76
2021/07/19 08:34:12;;;;;;;1.20;1.20;;;;;;;19.98;44.65;101644.09;5980209;29;20297;-76
2021/07/19 08:37:17;;;;;;;1.00;1.00;;;;;;;19.88;44.14;101652.28;5979988;29;20193;-76
2021/07/19 08:40:21;;;;;;;1.02;1.02;;;;;;;20.05;45.00;101645.81;5978774;29;20576;-76
2021/07/19 08:43:25;;;;;;;1.13;1.13;;;;;;;19.67;43.07;101649.53;5978731;29;20515;-74
2021/07/19 08:46:31;;;;;;;5.30;1.17;;;;;;;19.61;42.85;101656.94;5979118;29;20215;-76
2021/07/19 08:49:36;;;;;;;1.20;1.15;;;;;;;19.68;44.83;101652.03;5978900;29;20388;-76
2021/07/19 08:52:40;;;;;;;1.02;1.00;;;;;;;19.76;43.46;101656.28;5979792;29;20249;-76
2021/07/19 08:55:49;;;;;;;1.75;1.13;;;;;;;19.81;44.15;101646.13;5978576;29;20476;-76
2021/07/19 08:58:54;;;;;;;2.05;1.00;;;;;;;20.10;45.24;101643.13;5978655;29;20568;-76
2021/07/19 09:02:04;;;;;;;1.75;1.00;;;;;;;20.06;44.57;101647.47;5978539;29;20600;-76
2021/07/19 09:05:10;;;;;;;1.30;1.05;;;;;;;20.17;44.91;101649.28;5978542;29;20201;-76
2021/07/19 09:08:15;;;;;;;2.38;1.20;;;;;;;19.93;44.47;101649.56;5980660;29;20458;-76
2021/07/19 09:11:21;;;;;;;1.45;1.40;;;;;;;20.17;44.58;101643.72;5982480;29;20200;-76
2021/07/19 09:14:27;;;;;;;1.00;1.00;;;;;;;20.22;43.07;101641.00;5981737;29;20232;-76
2021/07/19 09:17:33;;;;;;;0.90;0.90;;;;;;;20.23;42.56;101642.69;5983683;29;20313;-76
2021/07/19 09:20:39;;;;;;;1.10;1.10;;;;;;;20.30;43.46;101643.34;5982204;29;20373;-76
2021/07/19 09:23:43;;;;;;;1.00;1.00;;;;;;;20.27;43.04;101652.19;5983397;29;20272;-76
2021/07/19 09:26:51;;;;;;;1.38;1.38;;;;;;;20.24;42.94;101661.00;5982220;29;20197;-76
2021/07/19 09:29:57;;;;;;;0.95;0.95;;;;;;;20.15;41.89;101657.00;5983404;29;20200;-76
2021/07/19 09:33:05;;;;;;;1.02;1.02;;;;;;;20.04;41.60;101639.44;5983300;29;20243;-76
2021/07/19 09:36:10;;;;;;;1.00;1.00;;;;;;;20.23;43.44;101645.47;5982858;29;20192;-76
2021/07/19 09:39:15;;;;;;;1.08;1.08;;;;;;;20.22;44.32;101638.25;5981849;29;20510;-76
2021/07/19 09:42:21;;;;;;;1.20;1.20;;;;;;;20.30;43.48;101646.13;5982651;29;20256;-76
2021/07/19 09:45:31;;;;;;;1.25;1.20;;;;;;;20.41;43.46;101651.53;5982982;29;20235;-76
2021/07/19 09:48:38;;;;;;;1.10;1.10;;;;;;;20.38;43.46;101646.50;5980887;29;20507;-76
2021/07/19 09:51:43;;;;;;;1.05;1.02;;;;;;;20.21;43.51;101655.97;5982651;29;20224;-76
2021/07/19 09:55:03;;;;;;;1.20;1.10;;;;;;;20.33;43.39;101653.91;5982682;29;20228;-76
2021/07/19 09:58:07;;;;;;;1.10;1.10;;;;;;;20.41;42.10;101631.28;5981591;29;20368;-76
2021/07/19 10:01:12;;;;;;;2.33;1.13;;;;;;;20.61;42.57;101645.31;5982518;29;20192;-76
2021/07/19 10:04:19;;;;;;;4.75;1.00;;;;;;;20.52;41.26;101635.78;5983146;29;20264;-76
2021/07/19 10:07:24;;;;;;;1.20;1.10;;;;;;;20.42;41.57;101635.69;5982025;29;20193;-76
2021/07/19 10:10:36;;;;;;;1.33;1.30;;;;;;;20.35;40.63;101629.53;5982412;29;20242;-76
2021/07/19 10:13:40;;;;;;;1.10;1.10;;;;;;;20.58;41.35;101637.50;5982281;29;20217;-76
2021/07/19 10:16:45;;;;;;;1.98;1.25;;;;;;;20.24;41.90;101638.84;5982551;29;20192;-76
2021/07/19 10:19:51;;;;;;;1.20;1.20;;;;;;;20.33;41.56;101634.53;5979909;29;20240;-76
2021/07/19 10:22:56;;;;;;;1.60;1.40;;;;;;;20.55;41.76;101640.81;5981980;29;20276;-76
2021/07/19 10:26:00;;;;;;;1.80;1.20;;;;;;;20.55;41.55;101640.81;5981408;29;20210;-76
2021/07/19 10:29:05;;;;;;;3.83;3.72;;;;;;;20.70;41.99;101643.72;5982270;29;20204;-75
2021/07/19 10:32:10;;;;;;;3.53;1.63;;;;;;;20.61;41.64;101631.44;5982281;29;20241;-75
2021/07/19 10:35:16;;;;;;;1.30;1.30;;;;;;;20.60;41.59;101643.63;5980456;29;20320;-75
2021/07/19 10:38:26;;;;;;;1.33;1.23;;;;;;;20.63;41.21;101637.56;5980612;29;20400;-75
2021/07/19 10:41:30;;;;;;;1.15;1.15;;;;;;;20.72;41.53;101641.53;5979766;29;20286;-75
2021/07/19 10:44:39;;;;;;;1.13;1.13;;;;;;;20.56;41.30;101631.41;5981505;29;20237;-74
2021/07/19 10:47:52;;;;;;;1.25;1.25;;;;;;;20.77;41.51;101627.72;5981493;29;20193;-75
2021/07/19 10:51:02;;;;;;;3.00;1.30;;;;;;;20.86;41.96;101626.09;5981732;29;20203;-75
2021/07/19 10:54:17;;;;;;;3.60;1.33;;;;;;;20.81;40.74;101634.38;5979734;29;20290;-75
2021/07/19 10:57:34;;;;;;;1.85;1.20;;;;;;;21.00;41.23;101627.31;5980226;29;20193;-75
2021/07/19 11:00:40;;;;;;;4.97;1.20;;;;;;;20.87;41.56;101627.78;5981100;29;20201;-75
2021/07/19 11:03:44;;;;;;;1.27;1.27;;;;;;;21.02;42.22;101630.66;5980714;29;20555;-75
2021/07/19 11:06:56;;;;;;;1.30;1.30;;;;;;;20.91;40.91;101620.59;5981561;29;20193;-75
2021/07/19 11:10:00;;;;;;;1.00;1.00;;;;;;;21.01;41.67;101612.34;5981354;29;20209;-75
2021/07/19 11:13:05;;;;;;;1.50;1.40;;;;;;;20.98;41.06;101621.19;5980031;29;20193;-75
2021/07/19 11:16:15;;;;;;;1.45;1.30;;;;;;;21.16;40.61;101620.78;5980713;29;20224;-75
2021/07/19 11:19:30;;;;;;;1.30;1.30;;;;;;;21.22;41.95;101627.19;5979374;29;20551;-76
2021/07/19 11:22:35;;;;;;;2.63;1.42;;;;;;;21.00;40.95;101624.56;5981108;29;20225;-76
2021/07/19 11:25:42;;;;;;;1.30;1.30;;;;;;;21.18;41.77;101613.00;5979686;29;20203;-75
2021/07/19 11:28:47;;;;;;;1.50;1.30;;;;;;;21.27;41.62;101607.81;5980537;29;20241;-76
2021/07/19 11:32:04;;;;;;;1.48;1.40;;;;;;;21.45;40.50;101606.50;5979271;29;20197;-76
2021/07/19 11:35:12;;;;;;;1.48;1.38;;;;;;;21.59;40.95;101610.47;5980050;29;20227;-76
2021/07/19 11:38:18;;;;;;;3.22;1.30;;;;;;;21.42;39.81;101607.03;5980275;29;20231;-76
2021/07/19 11:41:42;;;;;;;1.20;1.20;;;;;;;21.33;39.96;101608.66;5980157;29;20268;-75
2021/07/19 11:44:46;;;;;;;1.55;1.42;;;;;;;21.45;40.20;101595.41;5980304;29;20203;-76
2021/07/19 11:47:52;;;;;;;1.42;1.40;;;;;;;21.59;40.82;101591.03;5980444;29;20266;-76
2021/07/19 11:50:57;;;;;;;1.55;1.20;;;;;;;21.71;40.97;101595.22;5980283;29;20200;-76
2021/07/19 11:54:03;;;;;;;1.15;1.15;;;;;;;21.86;39.42;101596.41;5979268;29;20254;-76
2021/07/19 11:57:09;;;;;;;2.35;1.60;;;;;;;21.73;38.89;101604.13;5980027;29;20193;-76
2021/07/19 12:00:25;;;;;;;2.67;1.20;;;;;;;21.57;38.40;101598.81;5980165;29;20193;-76
2021/07/19 12:03:30;;;;;;;1.23;1.20;;;;;;;21.83;39.68;101581.94;5978751;29;20236;-76
2021/07/19 12:06:34;;;;;;;1.20;1.20;;;;;;;21.87;40.55;101592.53;5979735;29;20196;-76
2021/07/19 12:09:40;;;;;;;1.20;1.20;;;;;;;21.68;39.60;101603.25;5979834;29;20251;-76
2021/07/19 12:12:45;;;;;;;1.95;1.30;;;;;;;21.73;39.08;101597.72;5979751;29;20290;-76
2021/07/19 12:15:52;;;;;;;1.30;1.30;;;;;;;21.79;38.81;101599.44;5979776;29;20280;-76
2021/07/19 12:18:56;;;;;;;3.08;1.30;;;;;;;22.00;39.68;101603.97;5978744;29;20311;-77
2021/07/19 12:22:02;;;;;;;1.60;1.60;;;;;;;22.05;38.30;101573.41;5978804;29;20263;-77
2021/07/19 12:25:08;;;;;;;1.67;1.20;;;;;;;21.96;39.61;101580.59;5979743;29;20232;-76
2021/07/19 12:28:16;;;;;;;1.38;1.38;;;;;;;21.84;38.53;101585.53;5980066;29;20193;-76
2021/07/19 12:31:26;;;;;;;1.85;1.45;;;;;;;22.14;38.96;101580.06;5978985;29;20199;-76
2021/07/19 12:34:32;;;;;;;1.55;1.20;;;;;;;21.98;38.40;101583.94;5979649;29;20266;-75
2021/07/19 12:37:38;;;;;;;1.30;1.30;;;;;;;22.17;38.36;101565.63;5979337;29;20246;-75
2021/07/19 12:40:43;;;;;;;1.33;1.33;;;;;;;22.35;38.05;101565.09;5982487;29;20294;-76
2021/07/19 12:43:48;;;;;;;1.40;1.40;;;;;;;22.43;38.38;101569.25;5983624;29;20303;-75
2021/07/19 12:46:53;;;;;;;1.30;1.30;;;;;;;22.24;37.85;101577.31;5983826;29;20280;-75
2021/07/19 12:50:03;;;;;;;1.20;1.20;;;;;;;22.32;38.91;101562.84;5983991;29;20244;-75
2021/07/19 12:53:14;;;;;;;1.60;1.60;;;;;;;22.38;38.49;101561.75;5982766;29;20381;-75
2021/07/19 12:56:23;;;;;;;4.07;1.40;;;;;;;22.55;38.13;101566.19;5982815;29;20229;-75
2021/07/19 12:59:27;;;;;;;1.42;1.30;;;;;;;22.40;37.89;101553.97;5983485;29;20197;-75
2021/07/19 13:02:34;;;;;;;1.38;1.38;;;;;;;22.53;39.16;101557.28;5983097;29;20255;-75
2021/07/19 13:05:48;;;;;;;1.38;1.38;;;;;;;22.52;37.85;101550.09;5984092;29;20282;-75
2021/07/19 13:08:55;;;;;;;3.80;1.35;;;;;;;22.57;38.18;101550.91;5983914;29;20193;-75
2021/07/19 13:12:03;;;;;;;1.65;1.27;;;;;;;22.70;37.15;101535.63;5983033;29;20212;-75
2021/07/19 13:15:09;;;;;;;1.50;1.50;;;;;;;22.79;38.31;101545.06;5983950;29;20221;-75
2021/07/19 13:18:21;;;;;;;1.42;1.42;;;;;;;22.91;37.07;101537.22;5983947;29;20201;-76
2021/07/19 13:21:26;;;;;;;1.67;1.58;;;;;;;23.01;38.01;101526.06;5984746;29;20209;-76
2021/07/19 13:24:38;;;;;;;1.35;1.35;;;;;;;23.19;38.09;101521.88;5984441;29;20256;-76
2021/07/19 13:27:45;;;;;;;1.40;1.38;;;;;;;23.12;37.47;101527.72;5983874;29;20260;-76
2021/07/19 13:30:50;;;;;;;1.30;1.20;;;;;;;22.89;37.20;101528.34;5983697;29;20274;-76
2021/07/19 13:33:54;;;;;;;1.45;1.45;;;;;;;22.87;37.68;101525.84;5983990;29;20200;-76
2021/07/19 13:36:58;;;;;;;1.90;1.40;;;;;;;22.87;36.68;101520.28;5983657;29;20298;-76
2021/07/19 13:40:08;;;;;;;4.97;1.40;;;;;;;23.12;37.11;101511.00;5984101;29;20221;-76
2021/07/19 13:43:15;;;;;;;2.38;1.40;;;;;;;24.26;36.59;101513.44;5983612;29;20193;-76
2021/07/19 13:46:19;;;;;;;1.40;1.40;;;;;;;25.93;33.29;101517.91;5981469;29;20406;-76
2021/07/19 13:49:23;;;;;;;2.08;1.88;;;;;;;27.10;31.94;101506.34;5982669;29;20295;-76
2021/07/19 13:52:27;;;;;;;2.30;1.50;;;;;;;26.74;30.69;101505.34;5982268;29;20322;-76
2021/07/19 13:55:35;;;;;;;1.38;1.38;;;;;;;26.06;31.70;101505.13;5982376;29;20551;-76
2021/07/19 13:58:43;;;;;;;1.33;1.33;;;;;;;26.66;30.69;101497.66;5982715;29;20200;-76
2021/07/19 14:01:47;;;;;;;2.85;1.50;;;;;;;27.10;30.25;101492.34;5981763;29;20519;-76
2021/07/19 14:04:53;;;;;;;1.40;1.40;;;;;;;26.90;30.33;101501.16;5983030;29;20408;-76
2021/07/19 14:07:57;;;;;;;1.63;1.48;;;;;;;25.97;31.22;101506.94;5982352;29;20455;-76
2021/07/19 14:11:02;;;;;;;2.95;1.50;;;;;;;25.49;31.91;101495.09;5981530;29;20239;-75
2021/07/19 14:14:08;;;;;;;1.40;1.40;;;;;;;25.22;33.05;101489.25;5982934;29;20499;-75
2021/07/19 14:17:15;;;;;;;1.45;1.45;;;;;;;25.08;33.29;101491.13;5982392;29;20228;-75
2021/07/19 14:20:20;;;;;;;1.35;1.35;;;;;;;24.50;34.22;101496.75;5983362;29;20200;-75
2021/07/19 14:23:24;;;;;;;1.00;1.00;;;;;;;24.54;34.25;101497.84;5981946;29;20216;-75
2021/07/19 14:26:28;;;;;;;1.20;1.20;;;;;;;24.26;34.12;101498.66;5982433;29;20212;-75
2021/07/19 14:29:36;;;;;;;1.35;1.27;;;;;;;24.09;33.93;101481.50;5981415;29;20261;-75